sensor_id;sensor_type;location;lat;lon;timestamp;temperature;humidity
45383;DHT22;42455;51.660;5.824;2023-11-19T00:02:23;15.1;98.5
45383;DHT22;42455;51.660;5.824;2023-11-19T00:07:29;15.1;98.5
45383;DHT22;42455;51.660;5.824;2023-11-19T00:12:35;15.2;98.5
45383;DHT22;42455;51.660;5.824;2023-11-19T00:17:42;15.2;98.5
45383;DHT22;42455;51.660;5.824;2023-11-19T00:22:48;15.2;98.5
45383;DHT22;42455;51.660;5.824;2023-11-19T00:27:53;15.3;98.5
45383;DHT22;42455;51.660;5.824;2023-11-19T00:33:00;15.3;98.5
45383;DHT22;42455;51.660;5.824;2023-11-19T00:38:06;15.3;98.5
45383;DHT22;42455;51.660;5.824;2023-11-19T00:43:12;15.3;98.5
45383;DHT22;42455;51.660;5.824;2023-11-19T00:48:18;15.3;98.5
45383;DHT22;42455;51.660;5.824;2023-11-19T00:53:25;15.4;98.5
45383;DHT22;42455;51.660;5.824;2023-11-19T00:58:31;15.4;98.5
45383;DHT22;42455;51.660;5.824;2023-11-19T01:03:37;15.4;98.5
45383;DHT22;42455;51.660;5.824;2023-11-19T01:08:43;15.5;98.5
45383;DHT22;42455;51.660;5.824;2023-11-19T01:13:50;15.5;98.5
45383;DHT22;42455;51.660;5.824;2023-11-19T01:18:56;15.5;98.5
45383;DHT22;42455;51.660;5.824;2023-11-19T01:24:02;15.5;98.5
45383;DHT22;42455;51.660;5.824;2023-11-19T01:29:08;15.5;98.5
45383;DHT22;42455;51.660;5.824;2023-11-19T01:34:14;15.6;98.5
45383;DHT22;42455;51.660;5.824;2023-11-19T01:39:20;15.6;98.5
45383;DHT22;42455;51.660;5.824;2023-11-19T01:44:26;15.6;98.5
45383;DHT22;42455;51.660;5.824;2023-11-19T01:49:32;15.6;98.5
45383;DHT22;42455;51.660;5.824;2023-11-19T01:54:38;15.6;98.5
45383;DHT22;42455;51.660;5.824;2023-11-19T01:59:44;15.6;98.5
45383;DHT22;42455;51.660;5.824;2023-11-19T02:04:52;15.6;98.5
45383;DHT22;42455;51.660;5.824;2023-11-19T02:09:57;15.6;98.5
45383;DHT22;42455;51.660;5.824;2023-11-19T02:15:03;15.6;98.5
45383;DHT22;42455;51.660;5.824;2023-11-19T02:20:09;15.6;98.5
45383;DHT22;42455;51.660;5.824;2023-11-19T02:25:28;15.6;98.5
45383;DHT22;42455;51.660;5.824;2023-11-19T02:30:22;15.5;98.5
45383;DHT22;42455;51.660;5.824;2023-11-19T02:35:28;15.5;98.5
45383;DHT22;42455;51.660;5.824;2023-11-19T02:40:34;15.5;98.5
45383;DHT22;42455;51.660;5.824;2023-11-19T02:45:40;15.5;98.5
45383;DHT22;42455;51.660;5.824;2023-11-19T02:50:46;15.4;98.5
45383;DHT22;42455;51.660;5.824;2023-11-19T02:55:53;15.4;98.5
45383;DHT22;42455;51.660;5.824;2023-11-19T03:00:59;15.4;98.5
45383;DHT22;42455;51.660;5.824;2023-11-19T03:06:06;15.4;98.5
45383;DHT22;42455;51.660;5.824;2023-11-19T03:11:11;15.4;98.5
45383;DHT22;42455;51.660;5.824;2023-11-19T03:16:17;15.4;98.5
45383;DHT22;42455;51.660;5.824;2023-11-19T03:21:26;15.4;98.5
45383;DHT22;42455;51.660;5.824;2023-11-19T03:26:30;15.4;98.5
45383;DHT22;42455;51.660;5.824;2023-11-19T03:31:41;15.3;98.5
45383;DHT22;42455;51.660;5.824;2023-11-19T03:36:42;15.3;98.5
45383;DHT22;42455;51.660;5.824;2023-11-19T03:41:49;15.2;98.5
45383;DHT22;42455;51.660;5.824;2023-11-19T03:46:55;15.1;98.5
45383;DHT22;42455;51.660;5.824;2023-11-19T03:52:01;15.0;98.5
45383;DHT22;42455;51.660;5.824;2023-11-19T03:57:07;14.9;98.5
45383;DHT22;42455;51.660;5.824;2023-11-19T04:02:14;14.8;98.5
45383;DHT22;42455;51.660;5.824;2023-11-19T04:07:20;14.7;98.5
45383;DHT22;42455;51.660;5.824;2023-11-19T04:12:26;14.6;98.5
45383;DHT22;42455;51.660;5.824;2023-11-19T04:17:32;14.6;98.5
45383;DHT22;42455;51.660;5.824;2023-11-19T04:22:38;14.5;98.5
45383;DHT22;42455;51.660;5.824;2023-11-19T04:27:45;14.5;98.5
45383;DHT22;42455;51.660;5.824;2023-11-19T04:32:51;14.4;98.5
45383;DHT22;42455;51.660;5.824;2023-11-19T04:37:57;14.3;98.5
45383;DHT22;42455;51.660;5.824;2023-11-19T04:43:03;14.3;98.5
45383;DHT22;42455;51.660;5.824;2023-11-19T04:48:09;14.3;98.5
45383;DHT22;42455;51.660;5.824;2023-11-19T04:53:16;14.2;98.5
45383;DHT22;42455;51.660;5.824;2023-11-19T04:58:22;14.2;98.5
45383;DHT22;42455;51.660;5.824;2023-11-19T05:03:28;14.2;98.5
45383;DHT22;42455;51.660;5.824;2023-11-19T05:08:35;14.2;98.5
45383;DHT22;42455;51.660;5.824;2023-11-19T05:13:40;14.1;98.5
45383;DHT22;42455;51.660;5.824;2023-11-19T05:18:47;14.1;98.5
45383;DHT22;42455;51.660;5.824;2023-11-19T05:23:53;14.1;98.5
45383;DHT22;42455;51.660;5.824;2023-11-19T05:28:59;14.1;98.5
45383;DHT22;42455;51.660;5.824;2023-11-19T05:34:05;14.1;98.5
45383;DHT22;42455;51.660;5.824;2023-11-19T05:39:11;14.0;98.5
45383;DHT22;42455;51.660;5.824;2023-11-19T05:44:18;14.0;98.5
45383;DHT22;42455;51.660;5.824;2023-11-19T05:49:24;14.0;98.5
45383;DHT22;42455;51.660;5.824;2023-11-19T05:54:30;14.0;98.5
45383;DHT22;42455;51.660;5.824;2023-11-19T05:59:36;13.9;98.5
45383;DHT22;42455;51.660;5.824;2023-11-19T06:04:43;13.9;98.5
45383;DHT22;42455;51.660;5.824;2023-11-19T06:09:49;13.9;98.5
45383;DHT22;42455;51.660;5.824;2023-11-19T06:14:55;13.9;98.5
45383;DHT22;42455;51.660;5.824;2023-11-19T06:20:01;13.9;98.5
45383;DHT22;42455;51.660;5.824;2023-11-19T06:25:07;13.9;98.5
45383;DHT22;42455;51.660;5.824;2023-11-19T06:30:13;13.8;98.5
45383;DHT22;42455;51.660;5.824;2023-11-19T06:35:20;13.8;98.5
45383;DHT22;42455;51.660;5.824;2023-11-19T06:40:26;13.8;98.5
45383;DHT22;42455;51.660;5.824;2023-11-19T06:45:32;13.8;98.5
45383;DHT22;42455;51.660;5.824;2023-11-19T06:55:45;13.7;98.5
45383;DHT22;42455;51.660;5.824;2023-11-19T07:00:51;13.7;98.5
45383;DHT22;42455;51.660;5.824;2023-11-19T07:05:57;13.6;98.5
45383;DHT22;42455;51.660;5.824;2023-11-19T07:11:03;13.6;98.5
45383;DHT22;42455;51.660;5.824;2023-11-19T07:16:08;13.6;98.5
45383;DHT22;42455;51.660;5.824;2023-11-19T07:21:15;13.6;98.5
45383;DHT22;42455;51.660;5.824;2023-11-19T07:26:21;13.6;98.5
45383;DHT22;42455;51.660;5.824;2023-11-19T07:31:27;13.5;98.5
45383;DHT22;42455;51.660;5.824;2023-11-19T07:36:33;13.5;98.5
45383;DHT22;42455;51.660;5.824;2023-11-19T07:41:39;13.5;98.5
45383;DHT22;42455;51.660;5.824;2023-11-19T07:46:46;13.5;98.5
45383;DHT22;42455;51.660;5.824;2023-11-19T07:51:52;13.5;98.5
45383;DHT22;42455;51.660;5.824;2023-11-19T07:56:58;13.6;98.5
45383;DHT22;42455;51.660;5.824;2023-11-19T08:02:05;13.6;98.5
45383;DHT22;42455;51.660;5.824;2023-11-19T08:07:11;13.6;98.5
45383;DHT22;42455;51.660;5.824;2023-11-19T08:17:23;13.6;98.5
45383;DHT22;42455;51.660;5.824;2023-11-19T08:22:29;13.7;98.5
45383;DHT22;42455;51.660;5.824;2023-11-19T08:27:35;13.7;98.5
45383;DHT22;42455;51.660;5.824;2023-11-19T08:32:41;13.7;98.5
45383;DHT22;42455;51.660;5.824;2023-11-19T08:37:48;13.8;98.5
45383;DHT22;42455;51.660;5.824;2023-11-19T08:42:54;13.9;98.5
45383;DHT22;42455;51.660;5.824;2023-11-19T08:48:00;13.9;98.5
45383;DHT22;42455;51.660;5.824;2023-11-19T08:53:06;14.0;98.5
45383;DHT22;42455;51.660;5.824;2023-11-19T08:58:13;14.1;98.5
45383;DHT22;42455;51.660;5.824;2023-11-19T09:03:19;14.2;98.5
45383;DHT22;42455;51.660;5.824;2023-11-19T09:08:25;14.2;98.5
45383;DHT22;42455;51.660;5.824;2023-11-19T09:13:31;14.3;98.5
45383;DHT22;42455;51.660;5.824;2023-11-19T09:18:37;14.4;98.5
45383;DHT22;42455;51.660;5.824;2023-11-19T09:23:44;14.4;98.5
45383;DHT22;42455;51.660;5.824;2023-11-19T09:28:50;14.5;98.5
45383;DHT22;42455;51.660;5.824;2023-11-19T09:33:56;14.6;98.5
45383;DHT22;42455;51.660;5.824;2023-11-19T09:39:02;14.6;98.5
45383;DHT22;42455;51.660;5.824;2023-11-19T09:44:09;14.6;98.5
45383;DHT22;42455;51.660;5.824;2023-11-19T09:49:21;14.7;98.5
45383;DHT22;42455;51.660;5.824;2023-11-19T09:54:21;14.7;98.5
45383;DHT22;42455;51.660;5.824;2023-11-19T09:59:27;14.8;98.5
45383;DHT22;42455;51.660;5.824;2023-11-19T10:04:36;14.9;98.5
45383;DHT22;42455;51.660;5.824;2023-11-19T10:09:40;15.0;98.5
45383;DHT22;42455;51.660;5.824;2023-11-19T10:14:47;15.0;98.5
45383;DHT22;42455;51.660;5.824;2023-11-19T10:19:52;15.1;98.5
45383;DHT22;42455;51.660;5.824;2023-11-19T10:24:58;15.1;98.0
45383;DHT22;42455;51.660;5.824;2023-11-19T10:30:05;15.2;98.0
45383;DHT22;42455;51.660;5.824;2023-11-19T10:35:11;15.3;98.0
45383;DHT22;42455;51.660;5.824;2023-11-19T10:40:17;15.4;97.5
45383;DHT22;42455;51.660;5.824;2023-11-19T10:45:24;15.5;97.5
45383;DHT22;42455;51.660;5.824;2023-11-19T10:50:29;15.5;97.5
45383;DHT22;42455;51.660;5.824;2023-11-19T10:55:37;15.6;97.0
45383;DHT22;42455;51.660;5.824;2023-11-19T11:00:56;15.6;96.5
45383;DHT22;42455;51.660;5.824;2023-11-19T11:05:49;15.7;96.5
45383;DHT22;42455;51.660;5.824;2023-11-19T11:10:57;15.7;96.5
45383;DHT22;42455;51.660;5.824;2023-11-19T11:16:01;15.8;96.5
45383;DHT22;42455;51.660;5.824;2023-11-19T11:21:09;15.9;96.5
45383;DHT22;42455;51.660;5.824;2023-11-19T11:29:26;15.9;96.0
45383;DHT22;42455;51.660;5.824;2023-11-19T11:37:18;15.9;96.0
45383;DHT22;42455;51.660;5.824;2023-11-19T11:38:50;15.9;95.5
45383;DHT22;42455;51.660;5.824;2023-11-19T11:41:31;15.9;95.5
45383;DHT22;42455;51.660;5.824;2023-11-19T11:46:56;15.9;95.5
45383;DHT22;42455;51.660;5.824;2023-11-19T11:51:59;15.9;95.5
45383;DHT22;42455;51.660;5.824;2023-11-19T11:57:01;15.9;95.0
45383;DHT22;42455;51.660;5.824;2023-11-19T12:01:58;15.9;95.0
45383;DHT22;42455;51.660;5.824;2023-11-19T12:07:04;15.9;95.0
45383;DHT22;42455;51.660;5.824;2023-11-19T12:12:26;15.9;95.0
45383;DHT22;42455;51.660;5.824;2023-11-19T12:17:49;15.8;95.0
45383;DHT22;42455;51.660;5.824;2023-11-19T12:22:23;15.8;95.0
45383;DHT22;42455;51.660;5.824;2023-11-19T12:27:27;15.7;94.5
45383;DHT22;42455;51.660;5.824;2023-11-19T12:32:37;15.7;95.0
45383;DHT22;42455;51.660;5.824;2023-11-19T12:37:41;15.6;95.0
45383;DHT22;42455;51.660;5.824;2023-11-19T12:42:46;15.6;95.0
45383;DHT22;42455;51.660;5.824;2023-11-19T12:48:04;15.5;95.0
45383;DHT22;42455;51.660;5.824;2023-11-19T12:52:58;15.6;95.5
45383;DHT22;42455;51.660;5.824;2023-11-19T13:03:10;15.7;95.5
45383;DHT22;42455;51.660;5.824;2023-11-19T13:08:16;15.8;95.5
45383;DHT22;42455;51.660;5.824;2023-11-19T13:13:22;15.8;95.0
45383;DHT22;42455;51.660;5.824;2023-11-19T13:18:28;15.8;95.0
45383;DHT22;42455;51.660;5.824;2023-11-19T13:23:34;15.9;95.0
45383;DHT22;42455;51.660;5.824;2023-11-19T13:28:40;15.9;94.5
45383;DHT22;42455;51.660;5.824;2023-11-19T13:33:46;15.8;94.5
45383;DHT22;42455;51.660;5.824;2023-11-19T13:38:52;15.7;94.5
45383;DHT22;42455;51.660;5.824;2023-11-19T13:43:59;15.6;95.0
45383;DHT22;42455;51.660;5.824;2023-11-19T13:49:05;15.5;95.0
45383;DHT22;42455;51.660;5.824;2023-11-19T13:54:11;15.4;95.5
45383;DHT22;42455;51.660;5.824;2023-11-19T13:59:17;15.3;95.5
45383;DHT22;42455;51.660;5.824;2023-11-19T14:04:24;15.3;96.0
45383;DHT22;42455;51.660;5.824;2023-11-19T14:09:30;15.3;96.0
45383;DHT22;42455;51.660;5.824;2023-11-19T14:14:36;15.3;96.0
45383;DHT22;42455;51.660;5.824;2023-11-19T14:19:42;15.3;96.0
45383;DHT22;42455;51.660;5.824;2023-11-19T14:24:48;15.2;96.0
45383;DHT22;42455;51.660;5.824;2023-11-19T14:29:55;15.2;96.0
45383;DHT22;42455;51.660;5.824;2023-11-19T14:35:01;15.2;96.0
45383;DHT22;42455;51.660;5.824;2023-11-19T14:40:07;15.1;96.0
45383;DHT22;42455;51.660;5.824;2023-11-19T14:45:13;15.1;96.0
45383;DHT22;42455;51.660;5.824;2023-11-19T14:50:19;15.1;95.5
45383;DHT22;42455;51.660;5.824;2023-11-19T14:55:26;15.0;96.0
45383;DHT22;42455;51.660;5.824;2023-11-19T15:00:32;14.9;96.0
45383;DHT22;42455;51.660;5.824;2023-11-19T15:05:38;14.9;96.0
45383;DHT22;42455;51.660;5.824;2023-11-19T15:10:44;14.9;96.0
45383;DHT22;42455;51.660;5.824;2023-11-19T15:15:50;14.8;96.0
45383;DHT22;42455;51.660;5.824;2023-11-19T15:20:57;14.9;96.0
45383;DHT22;42455;51.660;5.824;2023-11-19T15:26:03;14.8;96.5
45383;DHT22;42455;51.660;5.824;2023-11-19T15:31:09;14.8;96.5
45383;DHT22;42455;51.660;5.824;2023-11-19T15:36:15;14.8;96.5
45383;DHT22;42455;51.660;5.824;2023-11-19T15:41:21;14.7;96.5
45383;DHT22;42455;51.660;5.824;2023-11-19T15:46:28;14.7;96.5
45383;DHT22;42455;51.660;5.824;2023-11-19T15:51:34;14.6;96.5
45383;DHT22;42455;51.660;5.824;2023-11-19T15:56:40;14.5;96.5
45383;DHT22;42455;51.660;5.824;2023-11-19T16:01:46;14.5;96.5
45383;DHT22;42455;51.660;5.824;2023-11-19T16:06:53;14.4;96.5
45383;DHT22;42455;51.660;5.824;2023-11-19T16:11:59;14.3;97.0
45383;DHT22;42455;51.660;5.824;2023-11-19T16:17:05;14.3;97.0
45383;DHT22;42455;51.660;5.824;2023-11-19T16:22:11;14.2;97.5
45383;DHT22;42455;51.660;5.824;2023-11-19T16:27:17;14.2;97.5
45383;DHT22;42455;51.660;5.824;2023-11-19T16:32:24;14.2;97.5
45383;DHT22;42455;51.660;5.824;2023-11-19T16:37:30;14.1;98.0
45383;DHT22;42455;51.660;5.824;2023-11-19T16:42:36;14.1;98.0
45383;DHT22;42455;51.660;5.824;2023-11-19T16:47:42;14.0;98.5
45383;DHT22;42455;51.660;5.824;2023-11-19T16:52:48;14.0;98.5
45383;DHT22;42455;51.660;5.824;2023-11-19T16:57:55;14.0;98.5
45383;DHT22;42455;51.660;5.824;2023-11-19T17:03:01;13.9;98.5
45383;DHT22;42455;51.660;5.824;2023-11-19T17:08:07;13.9;98.5
45383;DHT22;42455;51.660;5.824;2023-11-19T17:13:13;13.9;98.5
45383;DHT22;42455;51.660;5.824;2023-11-19T17:18:20;13.8;98.5
45383;DHT22;42455;51.660;5.824;2023-11-19T17:23:26;13.8;98.5
45383;DHT22;42455;51.660;5.824;2023-11-19T17:28:32;13.8;98.5
45383;DHT22;42455;51.660;5.824;2023-11-19T17:33:38;13.7;98.5
45383;DHT22;42455;51.660;5.824;2023-11-19T17:38:44;13.7;98.5
45383;DHT22;42455;51.660;5.824;2023-11-19T17:43:50;13.7;98.5
45383;DHT22;42455;51.660;5.824;2023-11-19T17:48:57;13.7;98.5
45383;DHT22;42455;51.660;5.824;2023-11-19T17:54:03;13.7;98.5
45383;DHT22;42455;51.660;5.824;2023-11-19T17:59:09;13.7;98.5
45383;DHT22;42455;51.660;5.824;2023-11-19T18:04:15;13.7;98.5
45383;DHT22;42455;51.660;5.824;2023-11-19T18:09:22;13.7;98.5
45383;DHT22;42455;51.660;5.824;2023-11-19T18:14:28;13.7;98.5
45383;DHT22;42455;51.660;5.824;2023-11-19T18:19:34;13.7;98.5
45383;DHT22;42455;51.660;5.824;2023-11-19T18:24:40;13.7;98.5
45383;DHT22;42455;51.660;5.824;2023-11-19T18:29:46;13.7;98.5
45383;DHT22;42455;51.660;5.824;2023-11-19T18:34:53;13.7;98.5
45383;DHT22;42455;51.660;5.824;2023-11-19T18:39:59;13.7;98.5
45383;DHT22;42455;51.660;5.824;2023-11-19T18:45:05;13.6;98.5
45383;DHT22;42455;51.660;5.824;2023-11-19T18:50:10;13.6;98.5
45383;DHT22;42455;51.660;5.824;2023-11-19T18:55:16;13.6;98.5
45383;DHT22;42455;51.660;5.824;2023-11-19T19:00:23;13.6;98.5
45383;DHT22;42455;51.660;5.824;2023-11-19T19:05:29;13.5;98.5
45383;DHT22;42455;51.660;5.824;2023-11-19T19:10:35;13.5;98.5
45383;DHT22;42455;51.660;5.824;2023-11-19T19:15:41;13.5;98.5
45383;DHT22;42455;51.660;5.824;2023-11-19T19:20:47;13.5;98.5
45383;DHT22;42455;51.660;5.824;2023-11-19T19:25:54;13.5;98.5
45383;DHT22;42455;51.660;5.824;2023-11-19T19:31:00;13.5;98.5
45383;DHT22;42455;51.660;5.824;2023-11-19T19:36:07;13.5;98.5
45383;DHT22;42455;51.660;5.824;2023-11-19T19:41:12;13.6;98.5
45383;DHT22;42455;51.660;5.824;2023-11-19T19:46:19;13.6;98.5
45383;DHT22;42455;51.660;5.824;2023-11-19T19:51:25;13.6;98.5
45383;DHT22;42455;51.660;5.824;2023-11-19T19:56:31;13.6;98.5
45383;DHT22;42455;51.660;5.824;2023-11-19T20:01:37;13.6;98.5
45383;DHT22;42455;51.660;5.824;2023-11-19T20:06:43;13.6;98.5
45383;DHT22;42455;51.660;5.824;2023-11-19T20:11:50;13.6;98.5
45383;DHT22;42455;51.660;5.824;2023-11-19T20:16:56;13.6;98.5
45383;DHT22;42455;51.660;5.824;2023-11-19T20:22:02;13.7;98.5
45383;DHT22;42455;51.660;5.824;2023-11-19T20:27:08;13.7;98.5
45383;DHT22;42455;51.660;5.824;2023-11-19T20:32:15;13.7;98.5
45383;DHT22;42455;51.660;5.824;2023-11-19T20:37:21;13.7;98.5
45383;DHT22;42455;51.660;5.824;2023-11-19T20:42:27;13.8;98.5
45383;DHT22;42455;51.660;5.824;2023-11-19T20:47:33;13.8;98.5
45383;DHT22;42455;51.660;5.824;2023-11-19T20:57:45;13.9;98.5
45383;DHT22;42455;51.660;5.824;2023-11-19T21:02:52;13.9;98.5
45383;DHT22;42455;51.660;5.824;2023-11-19T21:07:58;13.9;98.5
45383;DHT22;42455;51.660;5.824;2023-11-19T21:13:04;13.9;98.5
45383;DHT22;42455;51.660;5.824;2023-11-19T21:18:11;14.0;98.5
45383;DHT22;42455;51.660;5.824;2023-11-19T21:23:17;14.0;98.5
45383;DHT22;42455;51.660;5.824;2023-11-19T21:28:23;14.0;98.5
45383;DHT22;42455;51.660;5.824;2023-11-19T21:33:29;14.0;98.5
45383;DHT22;42455;51.660;5.824;2023-11-19T21:38:35;14.0;98.5
45383;DHT22;42455;51.660;5.824;2023-11-19T21:43:41;14.0;98.5
45383;DHT22;42455;51.660;5.824;2023-11-19T21:48:48;14.0;98.5
45383;DHT22;42455;51.660;5.824;2023-11-19T21:53:54;14.0;98.5
45383;DHT22;42455;51.660;5.824;2023-11-19T21:59:00;14.0;98.5
45383;DHT22;42455;51.660;5.824;2023-11-19T22:04:06;14.0;98.5
45383;DHT22;42455;51.660;5.824;2023-11-19T22:09:12;14.0;98.5
45383;DHT22;42455;51.660;5.824;2023-11-19T22:14:19;14.0;98.5
45383;DHT22;42455;51.660;5.824;2023-11-19T22:19:25;13.9;98.5
45383;DHT22;42455;51.660;5.824;2023-11-19T22:24:31;13.9;98.5
45383;DHT22;42455;51.660;5.824;2023-11-19T22:29:37;13.9;98.5
45383;DHT22;42455;51.660;5.824;2023-11-19T22:34:43;13.9;98.5
45383;DHT22;42455;51.660;5.824;2023-11-19T22:39:50;13.9;98.5
45383;DHT22;42455;51.660;5.824;2023-11-19T22:44:56;13.9;98.5
45383;DHT22;42455;51.660;5.824;2023-11-19T22:50:02;13.9;98.5
45383;DHT22;42455;51.660;5.824;2023-11-19T22:55:08;13.9;98.5
45383;DHT22;42455;51.660;5.824;2023-11-19T23:00:15;13.9;98.5
45383;DHT22;42455;51.660;5.824;2023-11-19T23:05:21;13.9;98.5
45383;DHT22;42455;51.660;5.824;2023-11-19T23:10:27;13.9;98.5
45383;DHT22;42455;51.660;5.824;2023-11-19T23:15:33;13.9;98.5
45383;DHT22;42455;51.660;5.824;2023-11-19T23:20:39;13.9;98.5
45383;DHT22;42455;51.660;5.824;2023-11-19T23:25:45;13.9;98.5
45383;DHT22;42455;51.660;5.824;2023-11-19T23:30:52;13.9;98.5
45383;DHT22;42455;51.660;5.824;2023-11-19T23:35:58;13.8;98.5
45383;DHT22;42455;51.660;5.824;2023-11-19T23:41:04;13.8;98.5
45383;DHT22;42455;51.660;5.824;2023-11-19T23:46:10;13.8;98.5
45383;DHT22;42455;51.660;5.824;2023-11-19T23:51:17;13.8;98.5
45383;DHT22;42455;51.660;5.824;2023-11-19T23:56:23;13.8;98.5
